Columbus Air Force Base
KCBM : now visible

Airfield :











YOU CAN JOIN US ON...

 
LOGIN :

Register | Disclaimer

   EN    FR    IT 

 









Legend :    VFR   Marginal VFR   IFR   Intensive IFR   Very Intensive IFR
Visi :
Ceiling :
>= 8 km
>= 3000ft
5 to 8 km
1000 to 3000 ft
1500m to 5 km
500 to 1000 ft
800 to 1500m
200 to 500 ft
< 800m
< 200 ft
Symbols :   Thunderstorms  Fog  Heavy snow  Heavy precipitations  Wind > 20 kt






- Airport Elevation : 219 ft


KCBM - Columbus Air Force Base

CURRENT METAR :
  • 010456Z AUTO 00000KT 10SM CLR M03/M06 A3018 RMK AO2 SLP225 T10271065 $

EXPIRED METARs :
  • 010356Z AUTO 00000KT 10SM CLR M02/M07 A3019 RMK AO2 SLP228 T10241068 $
  • 010256Z AUTO 27006KT 10SM CLR M02/M07 A3019 RMK AO2 SLP228 T10191067 51013 $

TAF TAF KCBM
Valid from the 01 at 01:00 until the 02 at 07:00 UTC


010100Z 0101/0207 32012KT 9999 SCT030 QNH3018INS
BECMG 0106/0107 30006KT 9999 SKC QNH3018INS
BECMG 0112/0113 27006KT 8000 BR SKC QNH3025INS
BECMG 0116/0117 27006KT 9999 NSW SKC QNH3020INS TX08/0121Z TNM02/0113Z
KZME FIR / North America



MET'MAP, your aeronautical weather chart ! - Copyright ORBIFLY December 2007 - Disclaimer

ORBIFLY MET'MAP TEAM :

Programming & Development : Alexandra Zaïnal
Concept & original design : Baudouin d'Aumeries
Assistance for programming : Marc-Olivier Méhu
Technical & hardware support : Manuel Goepfert

Contact : metmap@orbifly.com




SOURCES & CREDITS :

   NOAA       Earth
Advisory